createdAt,value
2023-05-20T00:00:00.110Z, 12.4
2023-05-20T00:02:00.061Z, 12.6
2023-05-20T00:04:00.166Z, 12.7
2023-05-20T00:06:00.051Z, 12.9
2023-05-20T00:08:00.062Z, 13
2023-05-20T00:10:00.058Z, 13
2023-05-20T00:12:00.060Z, 13.1
2023-05-20T00:14:00.051Z, 13.2
2023-05-20T00:16:00.151Z, 13.3
2023-05-20T00:18:00.091Z, 13.2
2023-05-20T00:20:00.057Z, 13.1
2023-05-20T00:22:00.044Z, 13.2
2023-05-20T00:24:00.072Z, 13.4
2023-05-20T00:26:01.039Z, 13.4
2023-05-20T00:28:00.104Z, 13.2
2023-05-20T00:30:00.166Z, 13.1
2023-05-20T00:32:00.158Z, 13.1
2023-05-20T00:34:00.169Z, 13.1
2023-05-20T00:36:00.202Z, 13.2
2023-05-20T00:38:00.147Z, 13.2
2023-05-20T00:40:00.193Z, 13.2
2023-05-20T00:42:00.142Z, 13.2
2023-05-20T00:44:00.141Z, 13.1
2023-05-20T00:46:00.161Z, 13.2
2023-05-20T00:48:00.169Z, 13.3
2023-05-20T00:50:00.129Z, 13.3
2023-05-20T00:52:00.132Z, 13.5
2023-05-20T00:54:00.133Z, 13.6
2023-05-20T00:56:00.117Z, 13.6
2023-05-20T00:58:00.097Z, 13.7
2023-05-20T01:00:00.159Z, 13.6
2023-05-20T01:02:00.060Z, 13.3
2023-05-20T01:04:00.067Z, 13.2
2023-05-20T01:06:00.133Z, 13.1
2023-05-20T01:08:00.055Z, 13.3
2023-05-20T01:10:00.066Z, 13.3
2023-05-20T01:12:00.070Z, 13.4
2023-05-20T01:14:00.074Z, 13.2
2023-05-20T01:16:00.097Z, 13.1
2023-05-20T01:18:00.122Z, 13
2023-05-20T01:20:00.111Z, 12.9
2023-05-20T01:22:00.048Z, 13
2023-05-20T01:24:00.054Z, 13.1
2023-05-20T01:26:00.038Z, 13.2
2023-05-20T01:28:00.106Z, 13.1
2023-05-20T01:30:00.181Z, 13.1
2023-05-20T01:32:00.124Z, 13.1
2023-05-20T01:34:00.144Z, 13.1
2023-05-20T01:36:00.127Z, 12.9
2023-05-20T01:38:00.100Z, 13.1
2023-05-20T01:40:00.111Z, 12.9
2023-05-20T01:42:00.140Z, 12.9
2023-05-20T01:44:00.133Z, 12.9
2023-05-20T01:46:00.142Z, 12.8
2023-05-20T01:48:00.210Z, 12.8
2023-05-20T01:50:00.183Z, 12.9
2023-05-20T01:52:00.102Z, 13
2023-05-20T01:54:00.178Z, 13
2023-05-20T01:56:00.135Z, 12.9
2023-05-20T01:58:00.054Z, 12.8
2023-05-20T02:00:00.068Z, 12.9
2023-05-20T02:02:00.090Z, 12.9
2023-05-20T02:04:00.042Z, 13
2023-05-20T02:06:00.213Z, 12.9
2023-05-20T02:08:00.057Z, 12.9
2023-05-20T02:10:00.053Z, 12.8
2023-05-20T02:12:00.050Z, 12.8
2023-05-20T02:14:00.098Z, 12.7
2023-05-20T02:16:00.079Z, 12.8
2023-05-20T02:18:00.173Z, 12.9
2023-05-20T02:20:00.047Z, 12.9
2023-05-20T02:22:00.054Z, 12.9
2023-05-20T02:24:00.061Z, 12.9
2023-05-20T02:26:00.051Z, 12.8
2023-05-20T02:28:00.114Z, 12.7
2023-05-20T02:30:00.135Z, 12.6
2023-05-20T02:32:00.127Z, 12.6
2023-05-20T02:34:00.178Z, 12.6
2023-05-20T02:36:00.126Z, 12.6
2023-05-20T02:38:00.143Z, 12.6
2023-05-20T02:40:00.157Z, 12.6
2023-05-20T02:42:00.166Z, 12.6
2023-05-20T02:44:00.090Z, 12.5
2023-05-20T02:46:00.133Z, 12.5
2023-05-20T02:48:00.247Z, 12.4
2023-05-20T02:50:00.143Z, 12.4
2023-05-20T02:52:00.130Z, 12.4
2023-05-20T02:54:00.136Z, 12.3
2023-05-20T02:56:00.137Z, 12.3
2023-05-20T02:58:00.075Z, 12.4
2023-05-20T03:00:00.091Z, 12.4
2023-05-20T03:02:00.328Z, 12.3
2023-05-20T03:04:00.154Z, 12.3
2023-05-20T03:06:00.078Z, 12.2
2023-05-20T03:08:00.061Z, 12.2
2023-05-20T03:10:00.158Z, 12.2
2023-05-20T03:12:00.075Z, 12.1
2023-05-20T03:14:00.077Z, 12
2023-05-20T03:16:00.121Z, 12
2023-05-20T03:18:00.102Z, 11.9
2023-05-20T03:20:00.069Z, 12
2023-05-20T03:22:00.055Z, 12
2023-05-20T03:24:00.161Z, 12.1
2023-05-20T03:26:00.069Z, 12.2
2023-05-20T03:28:00.138Z, 12.2
2023-05-20T03:30:00.144Z, 12.2
2023-05-20T03:32:00.134Z, 12.3
2023-05-20T03:34:00.119Z, 12.4
2023-05-20T03:36:00.165Z, 12.2
2023-05-20T03:38:00.150Z, 12
2023-05-20T03:40:00.156Z, 11.9
2023-05-20T03:42:00.208Z, 11.8
2023-05-20T03:44:00.151Z, 11.8
2023-05-20T03:46:00.102Z, 11.8
2023-05-20T03:48:00.198Z, 11.9
2023-05-20T03:50:00.166Z, 11.9
2023-05-20T03:52:00.181Z, 12.1
2023-05-20T03:54:00.140Z, 12.1
2023-05-20T03:56:00.121Z, 12.4
2023-05-20T03:58:00.062Z, 12.1
2023-05-20T04:00:00.059Z, 12.1
2023-05-20T04:02:00.130Z, 12.1
2023-05-20T04:04:00.101Z, 11.9
2023-05-20T04:06:00.093Z, 12
2023-05-20T04:08:00.045Z, 11.9
2023-05-20T04:10:00.054Z, 11.8
2023-05-20T04:12:00.151Z, 11.9
2023-05-20T04:14:00.054Z, 12.1
2023-05-20T04:16:00.042Z, 12.2
2023-05-20T04:18:00.218Z, 12.4
2023-05-20T04:20:00.258Z, 12.6
2023-05-20T04:22:00.035Z, 12.7
2023-05-20T04:24:00.048Z, 12.9
2023-05-20T04:26:00.053Z, 13.2
2023-05-20T04:28:00.131Z, 13.5
2023-05-20T04:30:00.157Z, 13.6
2023-05-20T04:32:00.153Z, 13.6
2023-05-20T04:34:00.097Z, 13.8
2023-05-20T04:36:00.122Z, 13.8
2023-05-20T04:38:00.117Z, 13.8
2023-05-20T04:40:00.116Z, 14
2023-05-20T04:42:00.154Z, 13.9
2023-05-20T04:44:00.097Z, 13.6
2023-05-20T04:46:00.169Z, 13.5
2023-05-20T04:48:00.167Z, 13.3
2023-05-20T04:50:00.150Z, 13.5
2023-05-20T04:52:00.106Z, 13.7
2023-05-20T04:54:00.145Z, 13.8
2023-05-20T04:56:00.141Z, 13.9
2023-05-20T04:58:00.103Z, 14.1
2023-05-20T05:00:00.073Z, 13.5
2023-05-20T05:02:00.371Z, 13.4
2023-05-20T05:04:00.055Z, 13.4
2023-05-20T05:06:00.096Z, 13.4
2023-05-20T05:08:00.059Z, 13.4
2023-05-20T05:10:00.058Z, 13.2
2023-05-20T05:12:00.068Z, 13.1
2023-05-20T05:14:00.087Z, 13
2023-05-20T05:16:00.173Z, 13
2023-05-20T05:18:00.100Z, 12.7
2023-05-20T05:20:00.081Z, 12.7
2023-05-20T05:22:00.043Z, 12.7
2023-05-20T05:24:00.059Z, 12.7
2023-05-20T05:26:00.042Z, 12.7
2023-05-20T05:28:00.118Z, 13
2023-05-20T05:30:00.131Z, 13.1
2023-05-20T05:32:00.190Z, 13.1
2023-05-20T05:34:00.153Z, 13
2023-05-20T05:36:00.150Z, 13
2023-05-20T05:38:00.115Z, 12.9
2023-05-20T05:40:00.173Z, 13.1
2023-05-20T05:42:00.124Z, 13.1
2023-05-20T05:44:00.153Z, 13.1
2023-05-20T05:46:00.120Z, 13.1
2023-05-20T05:48:00.232Z, 13.2
2023-05-20T05:50:00.357Z, 13.3
2023-05-20T05:52:00.143Z, 13.2
2023-05-20T05:54:00.124Z, 13.3
2023-05-20T05:56:00.188Z, 13.1
2023-05-20T05:58:00.058Z, 13.1
2023-05-20T06:00:00.052Z, 13.3
2023-05-20T06:02:00.109Z, 13.3
2023-05-20T06:04:00.192Z, 13.2
2023-05-20T06:06:00.055Z, 13.4
2023-05-20T06:08:00.052Z, 13.6
2023-05-20T06:10:00.084Z, 13.2
2023-05-20T06:12:00.072Z, 13.3
2023-05-20T06:14:00.038Z, 13.3
2023-05-20T06:16:00.058Z, 13.4
2023-05-20T06:18:00.260Z, 13.2
2023-05-20T06:20:00.041Z, 13.3
2023-05-20T06:22:00.043Z, 13.3
2023-05-20T06:24:00.052Z, 13.5
2023-05-20T06:26:00.058Z, 13.5
2023-05-20T06:28:00.210Z, 13.6
2023-05-20T06:30:00.140Z, 13.9
2023-05-20T06:32:00.153Z, 14.1
2023-05-20T06:34:00.188Z, 13.9
2023-05-20T06:36:00.129Z, 14
2023-05-20T06:38:00.329Z, 14.3
2023-05-20T06:40:00.165Z, 14
2023-05-20T06:42:00.172Z, 13.9
2023-05-20T06:44:00.146Z, 13.9
2023-05-20T06:46:00.177Z, 13.9
2023-05-20T06:48:00.215Z, 14
2023-05-20T06:50:00.150Z, 14.1
2023-05-20T06:52:00.136Z, 14
2023-05-20T06:54:00.151Z, 13.9
2023-05-20T06:56:00.131Z, 13.8
2023-05-20T06:58:00.057Z, 13.8
2023-05-20T07:00:00.045Z, 13.8
2023-05-20T07:02:00.098Z, 13.9
2023-05-20T07:04:00.084Z, 13.7
2023-05-20T07:06:00.066Z, 13.8
2023-05-20T07:08:00.031Z, 13.9
2023-05-20T07:10:00.053Z, 13.9
2023-05-20T07:12:00.056Z, 13.9
2023-05-20T07:14:00.043Z, 13.7
2023-05-20T07:16:00.083Z, 13.6
2023-05-20T07:18:00.120Z, 13.6
2023-05-20T07:20:00.053Z, 13.7
2023-05-20T07:22:00.049Z, 13.7
2023-05-20T07:24:00.051Z, 13.8
2023-05-20T07:26:00.161Z, 13.8
2023-05-20T07:28:00.140Z, 14
2023-05-20T07:30:00.319Z, 14
2023-05-20T07:32:00.331Z, 14.3
2023-05-20T07:34:00.133Z, 14.2
2023-05-20T07:36:00.145Z, 14.1
2023-05-20T07:38:00.185Z, 14.3
2023-05-20T07:40:00.126Z, 14.2
2023-05-20T07:42:00.158Z, 14.4
2023-05-20T07:44:00.109Z, 14
2023-05-20T07:46:00.162Z, 14
2023-05-20T07:48:00.201Z, 14.1
2023-05-20T07:50:00.156Z, 14.3
2023-05-20T07:52:02.743Z, 14.4
2023-05-20T07:54:00.178Z, 14.2
2023-05-20T07:56:00.158Z, 14.1
2023-05-20T07:58:00.076Z, 14.2
2023-05-20T08:00:00.091Z, 14.3
2023-05-20T08:02:00.140Z, 14.3
2023-05-20T08:04:00.294Z, 14.2
2023-05-20T08:06:00.061Z, 14.3
2023-05-20T08:08:00.060Z, 14.4
2023-05-20T08:10:00.033Z, 14.5
2023-05-20T08:12:00.018Z, 14.4
2023-05-20T08:14:00.044Z, 14.5
2023-05-20T08:16:00.066Z, 14.4
2023-05-20T08:18:00.175Z, 14.4
2023-05-20T08:20:00.069Z, 14.4
2023-05-20T08:22:00.049Z, 14.4
2023-05-20T08:24:00.056Z, 14.7
2023-05-20T08:26:00.051Z, 14.4
2023-05-20T08:28:00.138Z, 14.7
2023-05-20T08:30:00.918Z, 14.6
2023-05-20T08:32:00.118Z, 14.6
2023-05-20T08:34:00.121Z, 14.5
2023-05-20T08:36:00.148Z, 14.3
2023-05-20T08:38:00.118Z, 14.4
2023-05-20T08:40:00.112Z, 14.5
2023-05-20T08:42:00.125Z, 14.7
2023-05-20T08:44:00.127Z, 14.5
2023-05-20T08:46:00.159Z, 14.6
2023-05-20T08:48:00.206Z, 14.8
2023-05-20T08:50:00.121Z, 15.1
2023-05-20T08:52:00.141Z, 15.3
2023-05-20T08:54:00.146Z, 15.4
2023-05-20T08:56:01.514Z, 15
2023-05-20T08:58:00.065Z, 15.1
2023-05-20T09:00:00.061Z, 14.9
2023-05-20T09:02:00.084Z, 15
2023-05-20T09:04:00.043Z, 15.1
2023-05-20T09:06:00.077Z, 15.1
2023-05-20T09:08:00.040Z, 15.1
2023-05-20T09:10:00.095Z, 15.3
2023-05-20T09:12:00.078Z, 15.1
2023-05-20T09:14:00.051Z, 15
2023-05-20T09:16:00.185Z, 15.1
2023-05-20T09:18:00.101Z, 15.3
2023-05-20T09:20:00.095Z, 15.2
2023-05-20T09:22:00.044Z, 15.4
2023-05-20T09:24:00.049Z, 15.7
2023-05-20T09:26:00.043Z, 15.8
2023-05-20T09:28:00.125Z, 15.8
2023-05-20T09:30:00.146Z, 15.8
2023-05-20T09:32:00.134Z, 15.9
2023-05-20T09:34:00.122Z, 16
2023-05-20T09:36:00.137Z, 16.1
2023-05-20T09:38:00.107Z, 15.9
2023-05-20T09:40:00.128Z, 15.7
2023-05-20T09:42:01.444Z, 15.9
2023-05-20T09:44:00.140Z, 16.3
2023-05-20T09:46:00.207Z, 16.1
2023-05-20T09:48:00.224Z, 16.2
2023-05-20T09:50:00.155Z, 16.1
2023-05-20T09:52:00.127Z, 16.2
2023-05-20T09:54:00.164Z, 16.7
2023-05-20T09:56:00.126Z, 16.6
2023-05-20T09:58:00.121Z, 16.7
2023-05-20T10:00:00.047Z, 16.7
2023-05-20T10:02:00.122Z, 16.5
2023-05-20T10:04:00.102Z, 16.8
2023-05-20T10:06:00.087Z, 16.7
2023-05-20T10:08:00.058Z, 16.6
2023-05-20T10:10:00.072Z, 16.9
2023-05-20T10:12:00.068Z, 17.1
2023-05-20T10:14:00.057Z, 17
2023-05-20T10:16:00.084Z, 17.3
2023-05-20T10:18:00.128Z, 17.4
2023-05-20T10:20:00.065Z, 17.1
2023-05-20T10:22:00.100Z, 16.8
2023-05-20T10:24:01.598Z, 16.5
2023-05-20T10:26:00.047Z, 16.9
2023-05-20T10:28:00.118Z, 17
2023-05-20T10:30:00.151Z, 16.9
2023-05-20T10:32:00.158Z, 16.6
2023-05-20T10:34:00.131Z, 16.7
2023-05-20T10:36:00.199Z, 16.7
2023-05-20T10:38:00.123Z, 16.8
2023-05-20T10:40:00.131Z, 16.9
2023-05-20T10:42:00.243Z, 16.8
2023-05-20T10:44:00.148Z, 16.9
2023-05-20T10:46:00.320Z, 16.7
2023-05-20T10:48:00.256Z, 16.6
2023-05-20T10:50:00.105Z, 16.6
2023-05-20T10:52:00.130Z, 17
2023-05-20T10:54:00.139Z, 17.3
2023-05-20T10:56:00.193Z, 17.5
2023-05-20T10:58:00.104Z, 17.3
2023-05-20T11:00:00.092Z, 17
2023-05-20T11:02:00.116Z, 17
2023-05-20T11:04:00.187Z, 17.3
2023-05-20T11:06:00.067Z, 17.7
2023-05-20T11:08:00.059Z, 17.8
2023-05-20T11:10:00.041Z, 17.9
2023-05-20T11:12:00.088Z, 17.9
2023-05-20T11:14:00.058Z, 17.7
2023-05-20T11:16:00.046Z, 17.5
2023-05-20T11:18:00.125Z, 17.6
2023-05-20T11:20:00.046Z, 18
2023-05-20T11:22:00.060Z, 18.8
2023-05-20T11:24:00.077Z, 19.3
2023-05-20T11:26:00.063Z, 18.4
2023-05-20T11:28:00.123Z, 18.4
2023-05-20T11:30:00.163Z, 18.4
2023-05-20T11:32:00.168Z, 18.3
2023-05-20T11:34:00.137Z, 18.5
2023-05-20T11:36:00.111Z, 18.5
2023-05-20T11:38:00.130Z, 18
2023-05-20T11:40:00.178Z, 18.4
2023-05-20T11:42:00.139Z, 18.9
2023-05-20T11:44:00.142Z, 18.6
2023-05-20T11:46:00.200Z, 18.9
2023-05-20T11:48:00.187Z, 18.4
2023-05-20T11:50:00.134Z, 18
2023-05-20T11:52:00.113Z, 17.9
2023-05-20T11:54:00.104Z, 18
2023-05-20T11:56:00.159Z, 17.8
2023-05-20T11:58:00.088Z, 18
2023-05-20T12:00:00.082Z, 18.2
2023-05-20T12:02:00.064Z, 18.5
2023-05-20T12:04:00.345Z, 18
2023-05-20T12:06:00.071Z, 17.8
2023-05-20T12:08:00.056Z, 18
2023-05-20T12:10:00.059Z, 18.5
2023-05-20T12:12:00.085Z, 18.6
2023-05-20T12:14:00.065Z, 18.6
2023-05-20T12:16:00.103Z, 18.3
2023-05-20T12:18:00.099Z, 18
2023-05-20T12:20:00.056Z, 18
2023-05-20T12:22:00.053Z, 18.3
2023-05-20T12:24:00.055Z, 18.2
2023-05-20T12:26:00.040Z, 17.8
2023-05-20T12:28:00.115Z, 17.9
2023-05-20T12:30:00.190Z, 18.5
2023-05-20T12:32:00.180Z, 18.9
2023-05-20T12:34:00.121Z, 18.7
2023-05-20T12:36:00.121Z, 18.7
2023-05-20T12:38:00.144Z, 19.3
2023-05-20T12:40:00.162Z, 18.8
2023-05-20T12:42:00.137Z, 18.3
2023-05-20T12:44:00.122Z, 18.4
2023-05-20T12:46:00.131Z, 18.5
2023-05-20T12:48:00.217Z, 18.8
2023-05-20T12:50:00.177Z, 19.1
2023-05-20T12:52:03.444Z, 18.3
2023-05-20T12:54:00.176Z, 18.4
2023-05-20T12:56:00.198Z, 18.9
2023-05-20T12:58:00.059Z, 18.9
2023-05-20T13:00:00.056Z, 18.9
2023-05-20T13:02:00.143Z, 18.2
2023-05-20T13:04:00.011Z, 18.8
2023-05-20T13:06:00.061Z, 18.8
2023-05-20T13:08:00.042Z, 18.5
2023-05-20T13:10:00.047Z, 18.7
2023-05-20T13:12:00.057Z, 18.7
2023-05-20T13:14:00.062Z, 18.1
2023-05-20T13:16:00.027Z, 17.8
2023-05-20T13:18:00.127Z, 17.8
2023-05-20T13:20:00.052Z, 17.9
2023-05-20T13:22:00.053Z, 17.8
2023-05-20T13:24:00.048Z, 18.1
2023-05-20T13:26:00.045Z, 18.4
2023-05-20T13:28:00.110Z, 18.1
2023-05-20T13:30:00.240Z, 18.2
2023-05-20T13:32:01.985Z, 17.7
2023-05-20T13:34:00.131Z, 17.7
2023-05-20T13:36:00.128Z, 18.2
2023-05-20T13:38:00.107Z, 17.9
2023-05-20T13:40:00.185Z, 18.1
2023-05-20T13:42:00.171Z, 18.5
2023-05-20T13:44:00.145Z, 18.4
2023-05-20T13:46:00.146Z, 18.7
2023-05-20T13:48:00.204Z, 18.7
2023-05-20T13:50:02.075Z, 19
2023-05-20T13:52:00.129Z, 19.2
2023-05-20T13:54:00.166Z, 19
2023-05-20T13:56:00.120Z, 19
2023-05-20T13:58:00.087Z, 19
2023-05-20T14:00:00.085Z, 19.1
2023-05-20T14:02:00.225Z, 19
2023-05-20T14:04:00.136Z, 18.9
2023-05-20T14:06:00.072Z, 18.4
2023-05-20T14:08:00.128Z, 19.1
2023-05-20T14:10:00.091Z, 19.5
2023-05-20T14:12:00.052Z, 18.7
2023-05-20T14:14:00.057Z, 18.1
2023-05-20T14:16:00.091Z, 18
2023-05-20T14:18:00.151Z, 18
2023-05-20T14:20:00.063Z, 18.1
2023-05-20T14:22:00.059Z, 17.8
2023-05-20T14:24:00.056Z, 17.9
2023-05-20T14:26:00.035Z, 18.1
2023-05-20T14:28:00.122Z, 18.3
2023-05-20T14:30:00.108Z, 18.3
2023-05-20T14:32:00.178Z, 18.5
2023-05-20T14:34:00.159Z, 18.7
2023-05-20T14:36:00.136Z, 19
2023-05-20T14:38:00.098Z, 19.2
2023-05-20T14:40:00.156Z, 19.7
2023-05-20T14:42:00.140Z, 19.1
2023-05-20T14:44:00.154Z, 19.1
2023-05-20T14:46:00.135Z, 19.1
2023-05-20T14:48:00.128Z, 18.6
2023-05-20T14:50:00.137Z, 18.5
2023-05-20T14:52:00.102Z, 18.6
2023-05-20T14:54:00.178Z, 18.6
2023-05-20T14:56:00.096Z, 19.1
2023-05-20T14:58:00.096Z, 18.9
2023-05-20T15:00:00.086Z, 18.9
2023-05-20T15:02:00.203Z, 19.1
2023-05-20T15:04:00.082Z, 19.4
2023-05-20T15:06:00.085Z, 19.6
2023-05-20T15:08:00.121Z, 19.3
2023-05-20T15:10:00.065Z, 19.2
2023-05-20T15:12:00.055Z, 19.2
2023-05-20T15:14:00.045Z, 18.9
2023-05-20T15:16:00.064Z, 18.9
2023-05-20T15:18:00.153Z, 18.7
2023-05-20T15:20:00.055Z, 18.7
2023-05-20T15:22:00.070Z, 18.6
2023-05-20T15:24:00.060Z, 18.3
2023-05-20T15:26:00.051Z, 18.4
2023-05-20T15:28:00.114Z, 18.5
2023-05-20T15:30:00.102Z, 18.6
2023-05-20T15:32:00.140Z, 18.9
2023-05-20T15:34:00.247Z, 19.4
2023-05-20T15:36:00.142Z, 19.7
2023-05-20T15:38:00.161Z, 19.5
2023-05-20T15:40:00.152Z, 19.5
2023-05-20T15:42:00.152Z, 19.5
2023-05-20T15:44:00.148Z, 19.1
2023-05-20T15:46:00.188Z, 19.1
2023-05-20T15:48:00.197Z, 19
2023-05-20T15:50:00.198Z, 19
2023-05-20T15:52:03.768Z, 18.7
2023-05-20T15:54:00.124Z, 18.4
2023-05-20T15:56:00.137Z, 18.4
2023-05-20T15:58:00.125Z, 18.3
2023-05-20T16:00:00.112Z, 18.2
2023-05-20T16:02:00.114Z, 18.3
2023-05-20T16:04:00.217Z, 18.4
2023-05-20T16:06:00.123Z, 18.4
2023-05-20T16:08:00.070Z, 18.2
2023-05-20T16:10:00.165Z, 18
2023-05-20T16:12:00.099Z, 18.3
2023-05-20T16:14:00.102Z, 18.5
2023-05-20T16:16:00.239Z, 18.5
2023-05-20T16:18:00.077Z, 18.4
2023-05-20T16:20:00.182Z, 18.5
2023-05-20T16:22:00.073Z, 18.5
2023-05-20T16:24:00.125Z, 18.6
2023-05-20T16:26:00.058Z, 18.7
2023-05-20T16:28:00.129Z, 18.6
2023-05-20T16:30:00.259Z, 18.5
2023-05-20T16:32:00.262Z, 18.4
2023-05-20T16:34:00.108Z, 18.4
2023-05-20T16:36:00.149Z, 18.4
2023-05-20T16:38:00.148Z, 18.7
2023-05-20T16:40:00.138Z, 19
2023-05-20T16:42:00.145Z, 18.9
2023-05-20T16:44:00.162Z, 18.6
2023-05-20T16:46:00.216Z, 18.4
2023-05-20T16:48:00.261Z, 18.6
2023-05-20T16:50:00.161Z, 18.6
2023-05-20T16:52:00.228Z, 18.5
2023-05-20T16:54:00.146Z, 18.3
2023-05-20T16:56:00.127Z, 18
2023-05-20T16:58:00.103Z, 17.8
2023-05-20T17:00:00.053Z, 17.9
2023-05-20T17:02:00.066Z, 17.9
2023-05-20T17:04:00.169Z, 17.9
2023-05-20T17:06:00.083Z, 18
2023-05-20T17:08:00.161Z, 18.1
2023-05-20T17:10:00.057Z, 18.3
2023-05-20T17:12:00.080Z, 18.2
2023-05-20T17:14:00.064Z, 18.3
2023-05-20T17:16:00.059Z, 18.1
2023-05-20T17:18:00.063Z, 18
2023-05-20T17:20:00.078Z, 18.1
2023-05-20T17:22:00.053Z, 18.1
2023-05-20T17:24:00.070Z, 18.1
2023-05-20T17:26:00.078Z, 18.3
2023-05-20T17:28:00.116Z, 18.3
2023-05-20T17:30:00.200Z, 18.1
2023-05-20T17:32:00.137Z, 18
2023-05-20T17:34:00.172Z, 18.1
2023-05-20T17:36:00.158Z, 18
2023-05-20T17:38:00.158Z, 18
2023-05-20T17:40:00.161Z, 18
2023-05-20T17:42:00.152Z, 17.9
2023-05-20T17:44:00.104Z, 17.9
2023-05-20T17:46:00.181Z, 17.7
2023-05-20T17:48:00.179Z, 17.6
2023-05-20T17:50:00.130Z, 17.5
2023-05-20T17:52:00.155Z, 17.5
2023-05-20T17:54:00.145Z, 17.6
2023-05-20T17:56:00.129Z, 17.4
2023-05-20T17:58:00.078Z, 17.3
2023-05-20T18:00:00.069Z, 17.3
2023-05-20T18:02:00.199Z, 17.4
2023-05-20T18:04:00.145Z, 17.4
2023-05-20T18:06:00.083Z, 17.4
2023-05-20T18:08:00.064Z, 17.2
2023-05-20T18:10:00.054Z, 17.2
2023-05-20T18:12:00.118Z, 17.4
2023-05-20T18:14:00.056Z, 17.4
2023-05-20T18:16:00.111Z, 17.3
2023-05-20T18:18:00.125Z, 17.2
2023-05-20T18:20:00.092Z, 17.1
2023-05-20T18:22:00.084Z, 17.1
2023-05-20T18:24:00.065Z, 17.2
2023-05-20T18:26:00.049Z, 17.2
2023-05-20T18:28:00.161Z, 17.3
2023-05-20T18:30:00.152Z, 17.2
2023-05-20T18:32:00.181Z, 17.2
2023-05-20T18:34:00.101Z, 17.1
2023-05-20T18:36:00.141Z, 17.2
2023-05-20T18:38:00.125Z, 17
2023-05-20T18:40:00.190Z, 16.8
2023-05-20T18:42:00.136Z, 16.8
2023-05-20T18:44:00.118Z, 16.7
2023-05-20T18:46:00.213Z, 16.6
2023-05-20T18:48:00.366Z, 16.6
2023-05-20T18:50:00.201Z, 16.6
2023-05-20T18:52:00.129Z, 16.5
2023-05-20T18:54:00.156Z, 16.5
2023-05-20T18:56:00.112Z, 16.6
2023-05-20T18:58:00.073Z, 16.7
2023-05-20T19:00:00.150Z, 16.5
2023-05-20T19:02:00.117Z, 16.4
2023-05-20T19:04:00.063Z, 16.4
2023-05-20T19:06:00.200Z, 16.4
2023-05-20T19:08:00.076Z, 16.4
2023-05-20T19:10:00.109Z, 16.4
2023-05-20T19:12:00.061Z, 16.4
2023-05-20T19:14:00.071Z, 16.4
2023-05-20T19:16:00.065Z, 16.2
2023-05-20T19:18:00.110Z, 16.2
2023-05-20T19:20:00.071Z, 16.1
2023-05-20T19:22:00.044Z, 16.1
2023-05-20T19:24:00.051Z, 16.1
2023-05-20T19:26:00.063Z, 16.1
2023-05-20T19:28:00.110Z, 16.1
2023-05-20T19:30:00.136Z, 16
2023-05-20T19:32:00.114Z, 16.2
2023-05-20T19:34:00.142Z, 16.2
2023-05-20T19:36:00.123Z, 16.1
2023-05-20T19:38:00.156Z, 15.9
2023-05-20T19:40:00.134Z, 15.9
2023-05-20T19:42:00.146Z, 15.9
2023-05-20T19:44:00.110Z, 15.9
2023-05-20T19:46:00.211Z, 15.8
2023-05-20T19:48:00.216Z, 15.7
2023-05-20T19:50:00.155Z, 15.7
2023-05-20T19:52:00.126Z, 15.6
2023-05-20T19:54:00.147Z, 15.6
2023-05-20T19:56:00.140Z, 15.8
2023-05-20T19:58:00.061Z, 15.8
2023-05-20T20:00:00.177Z, 15.8
2023-05-20T20:02:00.216Z, 15.9
2023-05-20T20:04:00.055Z, 15.8
2023-05-20T20:06:00.249Z, 15.8
2023-05-20T20:08:00.068Z, 15.7
2023-05-20T20:10:00.054Z, 15.6
2023-05-20T20:12:00.092Z, 15.5
2023-05-20T20:14:00.061Z, 15.5
2023-05-20T20:16:00.114Z, 15.5
2023-05-20T20:18:00.101Z, 15.5
2023-05-20T20:20:00.057Z, 15.4
2023-05-20T20:22:00.065Z, 15.4
2023-05-20T20:24:00.056Z, 15.4
2023-05-20T20:26:00.081Z, 15.4
2023-05-20T20:28:00.124Z, 15.5
2023-05-20T20:30:00.183Z, 15.5
2023-05-20T20:32:00.198Z, 15.6
2023-05-20T20:34:00.146Z, 15.5
2023-05-20T20:36:00.139Z, 15.5
2023-05-20T20:38:00.204Z, 15.5
2023-05-20T20:40:00.159Z, 15.5
2023-05-20T20:42:00.162Z, 15.6
2023-05-20T20:44:00.120Z, 15.6
2023-05-20T20:46:00.152Z, 15.7
2023-05-20T20:48:00.197Z, 15.8
2023-05-20T20:50:00.144Z, 15.7
2023-05-20T20:52:00.148Z, 15.6
2023-05-20T20:54:00.150Z, 15.6
2023-05-20T20:56:00.241Z, 15.7
2023-05-20T20:58:00.067Z, 15.8
2023-05-20T21:00:00.079Z, 15.9
2023-05-20T21:02:00.050Z, 15.9
2023-05-20T21:04:00.079Z, 15.9
2023-05-20T21:06:00.058Z, 15.7
2023-05-20T21:08:00.048Z, 15.8
2023-05-20T21:10:00.097Z, 15.8
2023-05-20T21:12:00.070Z, 15.6
2023-05-20T21:14:00.060Z, 15.6
2023-05-20T21:16:00.059Z, 15.6
2023-05-20T21:18:00.112Z, 15.5
2023-05-20T21:20:00.059Z, 15.4
2023-05-20T21:22:00.054Z, 15.4
2023-05-20T21:24:00.047Z, 15.4
2023-05-20T21:26:00.060Z, 15.4
2023-05-20T21:28:00.114Z, 15.2
2023-05-20T21:30:00.166Z, 15.2
2023-05-20T21:32:00.146Z, 15.2
2023-05-20T21:34:00.097Z, 15.2
2023-05-20T21:36:00.183Z, 15.2
2023-05-20T21:38:00.121Z, 15.2
2023-05-20T21:40:00.126Z, 15.3
2023-05-20T21:42:00.130Z, 15.4
2023-05-20T21:44:00.130Z, 15.3
2023-05-20T21:46:00.416Z, 15.3
2023-05-20T21:48:00.230Z, 15.2
2023-05-20T21:50:00.165Z, 15.3
2023-05-20T21:52:00.135Z, 15.2
2023-05-20T21:54:00.135Z, 15.2
2023-05-20T21:56:00.127Z, 15.2
2023-05-20T21:58:00.104Z, 15.1
2023-05-20T22:00:00.155Z, 15.2
2023-05-20T22:02:00.231Z, 15.1
2023-05-20T22:04:00.257Z, 15.1
2023-05-20T22:06:00.107Z, 15.3
2023-05-20T22:08:00.053Z, 15.2
2023-05-20T22:10:00.072Z, 15.3
2023-05-20T22:12:00.065Z, 15.4
2023-05-20T22:14:00.036Z, 15.3
2023-05-20T22:16:00.113Z, 15.3
2023-05-20T22:18:00.144Z, 15.3
2023-05-20T22:20:00.068Z, 15.3
2023-05-20T22:22:00.067Z, 15.3
2023-05-20T22:24:00.065Z, 15.3
2023-05-20T22:26:00.081Z, 15.4
2023-05-20T22:28:00.124Z, 15.4
2023-05-20T22:30:00.145Z, 15.5
2023-05-20T22:32:00.210Z, 15.5
2023-05-20T22:34:00.163Z, 15.4
2023-05-20T22:36:00.136Z, 15.4
2023-05-20T22:38:00.136Z, 15.3
2023-05-20T22:40:00.104Z, 15.2
2023-05-20T22:42:00.159Z, 15.1
2023-05-20T22:44:00.149Z, 15.2
2023-05-20T22:46:00.190Z, 15.1
2023-05-20T22:48:00.228Z, 15
2023-05-20T22:50:00.137Z, 14.9
2023-05-20T22:52:00.157Z, 14.5
2023-05-20T22:54:00.132Z, 14.3
2023-05-20T22:56:00.183Z, 14.1
2023-05-20T22:58:00.081Z, 14.1
2023-05-20T23:00:00.112Z, 14.1
2023-05-20T23:02:00.052Z, 14.1
2023-05-20T23:04:00.041Z, 14.1
2023-05-20T23:06:00.071Z, 14.1
2023-05-20T23:08:00.066Z, 14.1
2023-05-20T23:10:00.039Z, 14.1
2023-05-20T23:12:00.031Z, 14.3
2023-05-20T23:14:00.054Z, 14.4
2023-05-20T23:16:00.070Z, 14.5
2023-05-20T23:18:00.173Z, 14.6
2023-05-20T23:20:00.064Z, 14.5
2023-05-20T23:22:00.072Z, 14.7
2023-05-20T23:24:00.082Z, 14.8
2023-05-20T23:26:00.339Z, 15
2023-05-20T23:28:00.083Z, 15.1
2023-05-20T23:30:00.130Z, 15.2
2023-05-20T23:32:00.140Z, 15.4
2023-05-20T23:34:00.173Z, 15.4
2023-05-20T23:36:00.134Z, 15.4
2023-05-20T23:38:00.143Z, 15.4
2023-05-20T23:40:00.153Z, 15.4
2023-05-20T23:42:00.156Z, 15.5
2023-05-20T23:44:00.164Z, 15.4
2023-05-20T23:46:00.230Z, 15.4
2023-05-20T23:48:00.239Z, 15.3
2023-05-20T23:50:00.182Z, 15.2
2023-05-20T23:52:00.101Z, 15
2023-05-20T23:54:00.166Z, 14.8
2023-05-20T23:56:00.200Z, 14.6
2023-05-20T23:58:00.077Z, 14.5
